ASL21B LDPL-LYBE
Flight info
| Callsign | ASL21B |
|---|---|
| Flight time | 0h 52m |
| Altitude | 31000 |
| Route | OBALA1V/27 OBALA DCT ENUPU |
| Aircraft | A319/M-SDE3FGHIRWY/LB1 |
Departure
| Time | 2026-04-26 18:30 |
|---|---|
| Airport | Pula Airport (LDPL) |
Arrival
| Time | 2026-04-26 19:22 |
|---|---|
| Airport | Belgrade Nikola Tesla Airport (LYBE) |
| Time | Latitude | Longitude | Altitude | Speed | Heading |
|---|---|---|---|---|---|
| 2026-04-26 18:14 | 44.89673 | 13.92158 | 227 ft | 0 kts | 45° |
| 2026-04-26 18:25 | 44.89675 | 13.92164 | 228 ft | 1 kts | 64° |
| 2026-04-26 18:26 | 44.89671 | 13.92174 | 226 ft | 1 kts | 113° |
| 2026-04-26 18:26 | 44.89658 | 13.92181 | 227 ft | 3 kts | 160° |
| 2026-04-26 18:26 | 44.89636 | 13.92200 | 226 ft | 5 kts | 133° |
| 2026-04-26 18:26 | 44.89623 | 13.92249 | 226 ft | 6 kts | 125° |
| 2026-04-26 18:27 | 44.89582 | 13.92275 | 226 ft | 7 kts | 137° |
| 2026-04-26 18:27 | 44.89579 | 13.92347 | 226 ft | 8 kts | 86° |
| 2026-04-26 18:27 | 44.89581 | 13.92402 | 226 ft | 9 kts | 88° |
| 2026-04-26 18:27 | 44.89582 | 13.92495 | 226 ft | 10 kts | 90° |
| 2026-04-26 18:28 | 44.89583 | 13.92608 | 223 ft | 14 kts | 88° |
| 2026-04-26 18:28 | 44.89586 | 13.92733 | 224 ft | 12 kts | 88° |
| 2026-04-26 18:28 | 44.89580 | 13.92837 | 224 ft | 11 kts | 112° |
| 2026-04-26 18:28 | 44.89500 | 13.92866 | 222 ft | 14 kts | 178° |
| 2026-04-26 18:29 | 44.89405 | 13.92870 | 223 ft | 13 kts | 179° |
| 2026-04-26 18:29 | 44.89368 | 13.92849 | 223 ft | 2 kts | 259° |
| 2026-04-26 18:29 | 44.89368 | 13.92846 | 225 ft | 0 kts | 268° |
| 2026-04-26 18:29 | 44.89364 | 13.92640 | 220 ft | 56 kts | 268° |
| 2026-04-26 18:30 | 44.89345 | 13.91751 | 226 ft | 124 kts | 268° |
| 2026-04-26 18:30 | 44.89318 | 13.90316 | 513 ft | 152 kts | 269° |
| 2026-04-26 18:30 | 44.89282 | 13.88835 | 1214 ft | 150 kts | 269° |
| 2026-04-26 18:30 | 44.89240 | 13.87354 | 1771 ft | 155 kts | 268° |
| 2026-04-26 18:31 | 44.89195 | 13.85741 | 2046 ft | 176 kts | 268° |
| 2026-04-26 18:31 | 44.89145 | 13.83909 | 2325 ft | 198 kts | 268° |
| 2026-04-26 18:31 | 44.89092 | 13.81846 | 2633 ft | 222 kts | 267° |
| 2026-04-26 18:31 | 44.89032 | 13.79621 | 3319 ft | 231 kts | 267° |
| 2026-04-26 18:32 | 44.89123 | 13.77321 | 4030 ft | 241 kts | 288° |
| 2026-04-26 18:32 | 44.90102 | 13.75418 | 4818 ft | 247 kts | 327° |
| 2026-04-26 18:32 | 44.91692 | 13.74616 | 5633 ft | 248 kts | 354° |
| 2026-04-26 18:32 | 44.93418 | 13.74478 | 6532 ft | 249 kts | 3° |
| 2026-04-26 18:33 | 44.95179 | 13.74550 | 7396 ft | 251 kts | 4° |
| 2026-04-26 18:33 | 44.96908 | 13.74643 | 8261 ft | 253 kts | 3° |
| 2026-04-26 18:33 | 44.98627 | 13.75119 | 9108 ft | 255 kts | 27° |
| 2026-04-26 18:33 | 44.99996 | 13.76693 | 9955 ft | 259 kts | 53° |
| 2026-04-26 18:34 | 45.00711 | 13.79115 | 10299 ft | 282 kts | 83° |
| 2026-04-26 18:34 | 45.00821 | 13.81993 | 10590 ft | 305 kts | 88° |
| 2026-04-26 18:34 | 45.00883 | 13.85112 | 10834 ft | 329 kts | 89° |
| 2026-04-26 18:34 | 45.00942 | 13.88466 | 11026 ft | 352 kts | 89° |
| 2026-04-26 18:35 | 45.01008 | 13.91993 | 11466 ft | 363 kts | 88° |
| 2026-04-26 18:35 | 45.01083 | 13.95539 | 12092 ft | 368 kts | 88° |
| 2026-04-26 18:35 | 45.01167 | 13.99224 | 12766 ft | 373 kts | 88° |
| 2026-04-26 18:35 | 45.01252 | 14.02860 | 13411 ft | 377 kts | 88° |
| 2026-04-26 18:36 | 45.01341 | 14.06590 | 14031 ft | 382 kts | 88° |
| 2026-04-26 18:36 | 45.01205 | 14.10351 | 14600 ft | 386 kts | 97° |
| 2026-04-26 18:36 | 45.00823 | 14.14124 | 15222 ft | 389 kts | 98° |
| 2026-04-26 18:36 | 45.00435 | 14.17912 | 15848 ft | 391 kts | 98° |
| 2026-04-26 18:37 | 45.00040 | 14.21739 | 16466 ft | 394 kts | 98° |
| 2026-04-26 18:37 | 44.99644 | 14.25577 | 17071 ft | 397 kts | 98° |
| 2026-04-26 18:37 | 44.99241 | 14.29454 | 17726 ft | 399 kts | 98° |
| 2026-04-26 18:37 | 44.98835 | 14.33350 | 18379 ft | 401 kts | 98° |
| 2026-04-26 18:38 | 44.98431 | 14.37245 | 18931 ft | 404 kts | 98° |
| 2026-04-26 18:38 | 44.98023 | 14.41197 | 19445 ft | 408 kts | 98° |
| 2026-04-26 18:38 | 44.97610 | 14.45179 | 19938 ft | 412 kts | 98° |
| 2026-04-26 18:38 | 44.97189 | 14.49199 | 20430 ft | 415 kts | 98° |
| 2026-04-26 18:39 | 44.96760 | 14.53244 | 20903 ft | 418 kts | 98° |
| 2026-04-26 18:39 | 44.96392 | 14.57284 | 21364 ft | 422 kts | 96° |
| 2026-04-26 18:39 | 44.96127 | 14.61475 | 21821 ft | 425 kts | 94° |
| 2026-04-26 18:39 | 44.95941 | 14.65594 | 22267 ft | 428 kts | 92° |
| 2026-04-26 18:40 | 44.95777 | 14.69814 | 22655 ft | 432 kts | 92° |
| 2026-04-26 18:40 | 44.95608 | 14.74076 | 23037 ft | 436 kts | 92° |
| 2026-04-26 18:40 | 44.95417 | 14.78360 | 23487 ft | 439 kts | 93° |
| 2026-04-26 18:40 | 44.95201 | 14.82679 | 23853 ft | 442 kts | 94° |
| 2026-04-26 18:41 | 44.94966 | 14.87028 | 24144 ft | 444 kts | 94° |
| 2026-04-26 18:41 | 44.94730 | 14.91383 | 24376 ft | 445 kts | 94° |
| 2026-04-26 18:41 | 44.94490 | 14.95755 | 24658 ft | 448 kts | 94° |
| 2026-04-26 18:41 | 44.94249 | 15.00145 | 25018 ft | 450 kts | 94° |
| 2026-04-26 18:42 | 44.94004 | 15.04562 | 25371 ft | 452 kts | 94° |
| 2026-04-26 18:42 | 44.93754 | 15.08996 | 25711 ft | 455 kts | 94° |
| 2026-04-26 18:42 | 44.93505 | 15.13391 | 26062 ft | 457 kts | 94° |
| 2026-04-26 18:42 | 44.93249 | 15.17875 | 26404 ft | 459 kts | 94° |
| 2026-04-26 18:43 | 44.92995 | 15.22378 | 26739 ft | 461 kts | 94° |
| 2026-04-26 18:43 | 44.92738 | 15.26904 | 27052 ft | 463 kts | 94° |
| 2026-04-26 18:43 | 44.92478 | 15.31443 | 27370 ft | 466 kts | 94° |
| 2026-04-26 18:43 | 44.92213 | 15.36005 | 27676 ft | 468 kts | 94° |
| 2026-04-26 18:44 | 44.91944 | 15.40551 | 27980 ft | 470 kts | 94° |
| 2026-04-26 18:44 | 44.91669 | 15.45157 | 28282 ft | 472 kts | 94° |
| 2026-04-26 18:44 | 44.91389 | 15.49847 | 28578 ft | 475 kts | 94° |
| 2026-04-26 18:44 | 44.91115 | 15.54445 | 28858 ft | 477 kts | 94° |
| 2026-04-26 18:45 | 44.90836 | 15.59117 | 29177 ft | 479 kts | 94° |
| 2026-04-26 18:45 | 44.90552 | 15.63797 | 29605 ft | 478 kts | 94° |
| 2026-04-26 18:45 | 44.90267 | 15.68459 | 30039 ft | 477 kts | 94° |
| 2026-04-26 18:45 | 44.89981 | 15.73122 | 30437 ft | 476 kts | 94° |
| 2026-04-26 18:46 | 44.89694 | 15.77778 | 30794 ft | 476 kts | 94° |
| 2026-04-26 18:46 | 44.89406 | 15.82440 | 31079 ft | 476 kts | 94° |
| 2026-04-26 18:46 | 44.88823 | 15.91650 | 31153 ft | 472 kts | 94° |
| 2026-04-26 18:47 | 44.88232 | 16.00877 | 31155 ft | 472 kts | 94° |
| 2026-04-26 18:47 | 44.87641 | 16.10092 | 31156 ft | 472 kts | 94° |
| 2026-04-26 18:48 | 44.87038 | 16.19292 | 31158 ft | 472 kts | 94° |
| 2026-04-26 18:48 | 44.86430 | 16.28507 | 31154 ft | 472 kts | 94° |
| 2026-04-26 18:49 | 44.85811 | 16.37712 | 31151 ft | 472 kts | 94° |
| 2026-04-26 18:49 | 44.85185 | 16.46912 | 31146 ft | 471 kts | 94° |
| 2026-04-26 18:50 | 44.84552 | 16.56109 | 31147 ft | 471 kts | 94° |
| 2026-04-26 18:50 | 44.83917 | 16.65301 | 31150 ft | 471 kts | 95° |
| 2026-04-26 18:51 | 44.83272 | 16.74478 | 31152 ft | 470 kts | 95° |
| 2026-04-26 18:51 | 44.82617 | 16.83645 | 31153 ft | 470 kts | 95° |
| 2026-04-26 18:52 | 44.81962 | 16.92761 | 31147 ft | 470 kts | 95° |
| 2026-04-26 18:52 | 44.81299 | 17.01915 | 31153 ft | 470 kts | 95° |
| 2026-04-26 18:53 | 44.80621 | 17.11071 | 31155 ft | 470 kts | 95° |
| 2026-04-26 18:53 | 44.79939 | 17.20224 | 31155 ft | 470 kts | 95° |
| 2026-04-26 18:54 | 44.79254 | 17.29374 | 31154 ft | 470 kts | 95° |
| 2026-04-26 18:54 | 44.78568 | 17.38518 | 31157 ft | 469 kts | 95° |
| 2026-04-26 18:55 | 44.77868 | 17.47603 | 31157 ft | 469 kts | 96° |
| 2026-04-26 18:55 | 44.77158 | 17.56729 | 31161 ft | 469 kts | 96° |
| 2026-04-26 18:56 | 44.76440 | 17.65915 | 31162 ft | 469 kts | 96° |
| 2026-04-26 18:56 | 44.75722 | 17.74994 | 31164 ft | 469 kts | 96° |
| 2026-04-26 18:57 | 44.75112 | 17.82579 | 31171 ft | 469 kts | 96° |
| 2026-04-26 18:57 | 44.74246 | 17.93230 | 31172 ft | 469 kts | 96° |
| 2026-04-26 18:58 | 44.73502 | 18.02345 | 31178 ft | 469 kts | 96° |
| 2026-04-26 18:58 | 44.72753 | 18.11471 | 31175 ft | 470 kts | 96° |
| 2026-04-26 18:59 | 44.71994 | 18.20592 | 31173 ft | 470 kts | 96° |
| 2026-04-26 18:59 | 44.71229 | 18.29664 | 31173 ft | 470 kts | 96° |
| 2026-04-26 19:00 | 44.70454 | 18.38781 | 31182 ft | 470 kts | 96° |
| 2026-04-26 19:00 | 44.69664 | 18.47915 | 31185 ft | 470 kts | 96° |
| 2026-04-26 19:01 | 44.68877 | 18.57042 | 31185 ft | 471 kts | 96° |
| 2026-04-26 19:01 | 44.68082 | 18.66179 | 31053 ft | 472 kts | 97° |
| 2026-04-26 19:02 | 44.67682 | 18.70734 | 30683 ft | 469 kts | 97° |
| 2026-04-26 19:02 | 44.67282 | 18.75273 | 30323 ft | 466 kts | 97° |
| 2026-04-26 19:02 | 44.66881 | 18.79775 | 29906 ft | 463 kts | 97° |
| 2026-04-26 19:02 | 44.66614 | 18.82739 | 29626 ft | 461 kts | 97° |
| 2026-04-26 19:03 | 44.66076 | 18.88687 | 29079 ft | 457 kts | 97° |
| 2026-04-26 19:03 | 44.65679 | 18.93106 | 28755 ft | 454 kts | 97° |
| 2026-04-26 19:03 | 44.65286 | 18.97437 | 28327 ft | 449 kts | 96° |
| 2026-04-26 19:03 | 44.64894 | 19.01775 | 27705 ft | 446 kts | 96° |
| 2026-04-26 19:04 | 44.64505 | 19.06076 | 27108 ft | 442 kts | 96° |
| 2026-04-26 19:04 | 44.64118 | 19.10342 | 26513 ft | 439 kts | 96° |
| 2026-04-26 19:04 | 44.63727 | 19.14580 | 25923 ft | 435 kts | 96° |
| 2026-04-26 19:04 | 44.63334 | 19.18776 | 25340 ft | 432 kts | 96° |
| 2026-04-26 19:05 | 44.62553 | 19.27067 | 24205 ft | 425 kts | 96° |
| 2026-04-26 19:05 | 44.62437 | 19.31186 | 23631 ft | 420 kts | 84° |
| 2026-04-26 19:05 | 44.62873 | 19.35189 | 23101 ft | 411 kts | 73° |
| 2026-04-26 19:06 | 44.63806 | 19.38949 | 22599 ft | 403 kts | 63° |
| 2026-04-26 19:06 | 44.65176 | 19.42347 | 22120 ft | 396 kts | 53° |
| 2026-04-26 19:06 | 44.66844 | 19.45400 | 21609 ft | 393 kts | 50° |
| 2026-04-26 19:06 | 44.68534 | 19.48413 | 21351 ft | 393 kts | 49° |
| 2026-04-26 19:07 | 44.70222 | 19.51437 | 21052 ft | 393 kts | 50° |
| 2026-04-26 19:07 | 44.71566 | 19.54765 | 20787 ft | 392 kts | 67° |
| 2026-04-26 19:07 | 44.72146 | 19.58463 | 20538 ft | 386 kts | 84° |
| 2026-04-26 19:07 | 44.71948 | 19.62187 | 20303 ft | 379 kts | 98° |
| 2026-04-26 19:08 | 44.71511 | 19.65777 | 20180 ft | 365 kts | 98° |
| 2026-04-26 19:08 | 44.71087 | 19.69214 | 20202 ft | 349 kts | 97° |
| 2026-04-26 19:08 | 44.70679 | 19.72519 | 19996 ft | 338 kts | 97° |
| 2026-04-26 19:08 | 44.70282 | 19.75753 | 19517 ft | 335 kts | 97° |
| 2026-04-26 19:09 | 44.69887 | 19.79001 | 18894 ft | 339 kts | 97° |
| 2026-04-26 19:09 | 44.69494 | 19.82228 | 18383 ft | 338 kts | 97° |
| 2026-04-26 19:09 | 44.69097 | 19.85474 | 17839 ft | 336 kts | 97° |
| 2026-04-26 19:09 | 44.68701 | 19.88699 | 17304 ft | 334 kts | 97° |
| 2026-04-26 19:10 | 44.68306 | 19.91906 | 16774 ft | 332 kts | 97° |
| 2026-04-26 19:10 | 44.67912 | 19.95100 | 16261 ft | 331 kts | 97° |
| 2026-04-26 19:10 | 44.67518 | 19.98273 | 15762 ft | 329 kts | 96° |
| 2026-04-26 19:10 | 44.67127 | 20.01435 | 15273 ft | 328 kts | 96° |
| 2026-04-26 19:11 | 44.66738 | 20.04579 | 14801 ft | 326 kts | 96° |
| 2026-04-26 19:11 | 44.66349 | 20.07714 | 14320 ft | 325 kts | 96° |
| 2026-04-26 19:11 | 44.65959 | 20.10838 | 13831 ft | 324 kts | 96° |
| 2026-04-26 19:11 | 44.65566 | 20.13943 | 13324 ft | 322 kts | 96° |
| 2026-04-26 19:12 | 44.65172 | 20.17038 | 12829 ft | 320 kts | 96° |
| 2026-04-26 19:12 | 44.64782 | 20.20105 | 12346 ft | 319 kts | 96° |
| 2026-04-26 19:12 | 44.64395 | 20.23160 | 11832 ft | 316 kts | 96° |
| 2026-04-26 19:12 | 44.64010 | 20.26187 | 11290 ft | 314 kts | 96° |
| 2026-04-26 19:13 | 44.63627 | 20.29196 | 10725 ft | 312 kts | 97° |
| 2026-04-26 19:13 | 44.63246 | 20.32180 | 10170 ft | 310 kts | 97° |
| 2026-04-26 19:13 | 44.62868 | 20.35148 | 9590 ft | 308 kts | 97° |
| 2026-04-26 19:13 | 44.62492 | 20.38097 | 9017 ft | 305 kts | 97° |
| 2026-04-26 19:14 | 44.62117 | 20.41016 | 8456 ft | 303 kts | 96° |
| 2026-04-26 19:14 | 44.61743 | 20.43915 | 7904 ft | 300 kts | 96° |
| 2026-04-26 19:14 | 44.61374 | 20.46785 | 7391 ft | 298 kts | 96° |
| 2026-04-26 19:14 | 44.61255 | 20.47715 | 7217 ft | 296 kts | 96° |
| 2026-04-26 19:15 | 44.61637 | 20.52193 | 6490 ft | 262 kts | 47° |
| 2026-04-26 19:15 | 44.62867 | 20.53867 | 6355 ft | 235 kts | 29° |
| 2026-04-26 19:15 | 44.63748 | 20.54660 | 6241 ft | 221 kts | 22° |
| 2026-04-26 19:15 | 44.65486 | 20.56049 | 5664 ft | 216 kts | 25° |
| 2026-04-26 19:16 | 44.66762 | 20.57159 | 5178 ft | 215 kts | 27° |
| 2026-04-26 19:16 | 44.68064 | 20.57974 | 4915 ft | 196 kts | 3° |
| 2026-04-26 19:16 | 44.68947 | 20.57928 | 4773 ft | 184 kts | 346° |
| 2026-04-26 19:16 | 44.70039 | 20.57116 | 4427 ft | 177 kts | 318° |
| 2026-04-26 19:17 | 44.70754 | 20.55762 | 4189 ft | 167 kts | 306° |
| 2026-04-26 19:17 | 44.71365 | 20.54415 | 3979 ft | 160 kts | 306° |
| 2026-04-26 19:17 | 44.71952 | 20.53110 | 3776 ft | 157 kts | 306° |
| 2026-04-26 19:17 | 44.72524 | 20.51833 | 3567 ft | 156 kts | 307° |
| 2026-04-26 19:18 | 44.73098 | 20.50551 | 3363 ft | 154 kts | 307° |
| 2026-04-26 19:18 | 44.73667 | 20.49278 | 3142 ft | 154 kts | 307° |
| 2026-04-26 19:18 | 44.74239 | 20.47998 | 2931 ft | 155 kts | 306° |
| 2026-04-26 19:18 | 44.74811 | 20.46718 | 2725 ft | 155 kts | 306° |
| 2026-04-26 19:19 | 44.75382 | 20.45440 | 2511 ft | 154 kts | 306° |
| 2026-04-26 19:19 | 44.75953 | 20.44160 | 2318 ft | 154 kts | 306° |
| 2026-04-26 19:19 | 44.76519 | 20.42890 | 2104 ft | 153 kts | 307° |
| 2026-04-26 19:19 | 44.77063 | 20.41666 | 1899 ft | 142 kts | 307° |
| 2026-04-26 19:20 | 44.77576 | 20.40513 | 1714 ft | 136 kts | 307° |
| 2026-04-26 19:20 | 44.77906 | 20.39772 | 1607 ft | 134 kts | 307° |
| 2026-04-26 19:20 | 44.78564 | 20.38288 | 1332 ft | 133 kts | 306° |
| 2026-04-26 19:20 | 44.79051 | 20.37188 | 1115 ft | 132 kts | 306° |
| 2026-04-26 19:21 | 44.79542 | 20.36087 | 923 ft | 133 kts | 304° |
| 2026-04-26 19:21 | 44.80030 | 20.34991 | 757 ft | 134 kts | 303° |
| 2026-04-26 19:21 | 44.80522 | 20.33881 | 586 ft | 133 kts | 303° |
| 2026-04-26 19:21 | 44.81012 | 20.32777 | 431 ft | 134 kts | 303° |
| 2026-04-26 19:22 | 44.81497 | 20.31683 | 311 ft | 123 kts | 305° |
| 2026-04-26 19:22 | 44.81897 | 20.30790 | 307 ft | 85 kts | 302° |
| 2026-04-26 19:22 | 44.82121 | 20.30287 | 304 ft | 42 kts | 300° |
| 2026-04-26 19:22 | 44.82169 | 20.30030 | 306 ft | 23 kts | 270° |
| 2026-04-26 19:23 | 44.82170 | 20.29873 | 307 ft | 10 kts | 270° |
| 2026-04-26 19:23 | 44.82171 | 20.29772 | 309 ft | 11 kts | 274° |
| 2026-04-26 19:23 | 44.82200 | 20.29661 | 308 ft | 13 kts | 302° |
| 2026-04-26 19:23 | 44.82248 | 20.29552 | 309 ft | 14 kts | 302° |
| 2026-04-26 19:24 | 44.82300 | 20.29433 | 308 ft | 14 kts | 301° |
| 2026-04-26 19:24 | 44.82353 | 20.29310 | 309 ft | 15 kts | 301° |
| 2026-04-26 19:24 | 44.82304 | 20.29160 | 308 ft | 12 kts | 212° |
| 2026-04-26 19:25 | 44.82250 | 20.29119 | 307 ft | 9 kts | 206° |
| 2026-04-26 19:25 | 44.82216 | 20.29092 | 308 ft | 7 kts | 212° |
| 2026-04-26 19:25 | 44.82178 | 20.29058 | 307 ft | 3 kts | 212° |
| 2026-04-26 19:25 | 44.82175 | 20.29056 | 307 ft | 0 kts | 212° |